Time,TemperatureF,DewpointF,PressureIn,WindDirection,WindDirectionDegrees,WindSpeedMPH,WindSpeedGustMPH,Humidity,HourlyPrecipIn,Conditions,Clouds,dailyrainin,SoftwareType,DateUTC
2013-03-09 00:07:00,36.5,34.1,30.20,NNE,30,2.0,3.0,91,0.00,,CLR,-99.99,VWS V12.07,2013-03-09 08:07:00,
2013-03-09 01:07:00,36.0,33.4,30.21,NNE,30,0.0,0.0,90,0.00,,CLR,-99.99,VWS V12.07,2013-03-09 09:07:00,
2013-03-09 02:07:00,35.6,33.2,30.23,NNE,30,0.0,1.0,91,0.00,,CLR,-99.99,VWS V12.07,2013-03-09 10:07:00,
2013-03-09 03:07:00,35.6,33.2,30.23,NNE,30,0.0,1.0,91,0.00,,CLR,-99.99,VWS V12.07,2013-03-09 11:07:00,
2013-03-09 04:07:00,35.8,33.4,30.25,NE,40,1.0,3.0,91,0.00,,CLR,-99.99,VWS V12.07,2013-03-09 12:07:00,
2013-03-09 05:07:00,35.2,32.8,30.27,NE,40,0.0,2.0,91,0.00,,CLR,-99.99,VWS V12.07,2013-03-09 13:07:00,
2013-03-09 06:07:00,34.6,31.7,30.29,NE,45,0.0,0.0,89,0.00, BR,,-99.99,VWS V12.07,2013-03-09 14:07:00,
2013-03-09 07:07:00,34.4,32.0,30.33,NE,45,0.0,0.0,91,0.00, BR,,-99.99,VWS V12.07,2013-03-09 15:07:00,
2013-03-09 08:07:00,38.5,33.8,30.37,NE,45,1.0,2.0,83,0.00, FG,,-99.99,VWS V12.07,2013-03-09 16:07:00,
2013-03-09 09:07:00,41.1,34.8,30.37,East,82,0.0,5.0,78,0.00, FG,,-99.99,VWS V12.07,2013-03-09 17:07:00,
2013-03-09 10:07:00,44.8,35.6,30.37,WSW,239,0.0,5.0,70,0.00, FG,,-99.99,VWS V12.07,2013-03-09 18:07:00,
2013-03-09 11:07:00,45.2,37.1,30.39,SW,234,4.0,11.0,73,0.00, BR,,-99.99,VWS V12.07,2013-03-09 19:07:00,
2013-03-09 12:07:00,46.7,38.2,30.41,WSW,247,1.0,5.0,72,0.00,,FEW002,-99.99,VWS V12.07,2013-03-09 20:07:00,
2013-03-09 13:07:00,50.4,38.3,30.39,WSW,243,4.0,6.0,63,0.00,,FEW002,-99.99,VWS V12.07,2013-03-09 21:07:00,
2013-03-09 14:07:00,51.3,37.9,30.38,WSW,243,5.0,6.0,60,0.00,,CLR,-99.99,VWS V12.07,2013-03-09 22:07:00,
2013-03-09 15:07:00,52.9,38.5,30.38,WSW,248,2.0,6.0,58,0.00,,CLR,-99.99,VWS V12.07,2013-03-09 23:07:00,
2013-03-09 16:07:00,52.6,38.3,30.38,SW,229,1.0,5.0,58,0.00,,CLR,-99.99,VWS V12.07,2013-03-10 00:07:00,
2013-03-09 17:07:00,50.4,37.0,30.40,SW,233,0.0,6.0,60,0.00,,CLR,-99.99,VWS V12.07,2013-03-10 01:07:00,
2013-03-09 18:07:00,47.4,35.5,30.42,SW,230,0.0,0.0,63,0.00,,CLR,-99.99,VWS V12.07,2013-03-10 02:07:00,
2013-03-09 19:07:00,44.3,34.8,30.44,SW,230,0.0,0.0,69,0.00,,CLR,-99.99,VWS V12.07,2013-03-10 03:07:00,
2013-03-09 20:07:00,43.8,36.4,30.45,SW,230,0.0,2.0,75,0.00,,CLR,-99.99,VWS V12.07,2013-03-10 04:07:00,
2013-03-09 21:07:00,42.1,36.1,30.45,SW,230,1.0,3.0,79,0.00,,CLR,-99.99,VWS V12.07,2013-03-10 05:07:00,
2013-03-09 22:07:00,39.9,35.2,30.45,SW,232,0.0,0.0,83,0.00,,CLR,-99.99,VWS V12.07,2013-03-10 06:07:00,
2013-03-09 23:07:00,38.3,34.8,30.46,ENE,64,2.0,3.0,87,0.00,,FEW110,-99.99,VWS V12.07,2013-03-10 07:07:00,